Time;durP1;ratioP1;P1;durP2;ratioP2;P2;SDS_P1;SDS_P2;PMS_P1;PMS_P2;Temp;Humidity;BMP_temperature;BMP_pressure;BME280_temperature;BME280_humidity;BME280_pressure;Samples;Min_cycle;Max_cycle;Signal;HPM_P1;HPM_P2
2023/04/12 00:01:50;;;;;;;0.70;0.70;;;;;;;13.07;100.00;99012.91;5051457;28;20230;-75
2023/04/12 00:04:21;;;;;;;0.70;0.70;;;;;;;13.03;100.00;99011.22;5051316;28;20195;-75
2023/04/12 00:06:48;;;;;;;0.80;0.80;;;;;;;12.89;100.00;99008.78;5051889;28;20199;-74
2023/04/12 00:09:15;;;;;;;0.80;0.80;;;;;;;12.79;100.00;99012.38;5051400;28;20222;-73
2023/04/12 00:11:42;;;;;;;0.70;0.70;;;;;;;12.70;100.00;99014.22;5050824;28;20227;-74
2023/04/12 00:14:09;;;;;;;0.70;0.70;;;;;;;12.59;100.00;98990.06;5051292;28;20203;-74
2023/04/12 00:16:37;;;;;;;0.90;0.90;;;;;;;12.66;100.00;98992.59;5051462;28;20601;-74
2023/04/12 00:19:03;;;;;;;0.60;0.60;;;;;;;12.72;100.00;99002.03;5050955;28;20200;-74
2023/04/12 00:21:31;;;;;;;0.80;0.80;;;;;;;12.66;100.00;98992.59;5051429;28;20214;-74
2023/04/12 00:24:00;;;;;;;0.73;0.73;;;;;;;12.40;100.00;98982.44;5051116;28;20199;-73
2023/04/12 00:26:26;;;;;;;0.60;0.60;;;;;;;12.40;100.00;98995.44;5050538;28;20687;-74
2023/04/12 00:28:53;;;;;;;0.80;0.80;;;;;;;12.34;100.00;98977.28;5051440;28;20199;-74
2023/04/12 00:31:20;;;;;;;0.77;0.77;;;;;;;12.52;100.00;98991.00;5051272;28;20207;-74
2023/04/12 00:33:47;;;;;;;0.80;0.80;;;;;;;12.43;100.00;98991.94;5049879;28;20587;-74
2023/04/12 00:36:14;;;;;;;1.90;1.80;;;;;;;12.47;100.00;99000.56;5050785;28;20254;-74
2023/04/12 00:38:44;;;;;;;0.80;0.80;;;;;;;12.49;100.00;98996.19;5032747;28;20249;-74
2023/04/12 00:41:11;;;;;;;2.05;1.95;;;;;;;12.40;100.00;98998.03;5051264;28;20286;-74
2023/04/12 00:43:39;;;;;;;0.80;0.80;;;;;;;12.39;100.00;98980.72;5050795;28;20203;-74
2023/04/12 00:46:07;;;;;;;0.90;0.90;;;;;;;12.43;100.00;98986.75;5050386;28;20208;-74
2023/04/12 00:48:34;;;;;;;0.70;0.70;;;;;;;12.25;100.00;98955.72;5050860;28;20203;-75
2023/04/12 00:51:02;;;;;;;0.80;0.80;;;;;;;12.19;100.00;98959.28;5051132;28;20192;-73
2023/04/12 00:53:29;;;;;;;0.70;0.70;;;;;;;12.43;100.00;98991.94;5038372;28;20290;-74
2023/04/12 00:55:58;;;;;;;0.70;0.70;;;;;;;12.50;100.00;98982.34;5050453;28;20633;-74
2023/04/12 00:58:25;;;;;;;0.75;0.75;;;;;;;12.39;100.00;98975.50;5050638;28;20222;-74
2023/04/12 01:00:53;;;;;;;0.70;0.70;;;;;;;12.05;100.00;98937.75;5050411;28;20733;-74
2023/04/12 01:03:21;;;;;;;0.80;0.80;;;;;;;12.30;100.00;98979.94;5050441;28;20261;-74
2023/04/12 01:05:57;;;;;;;0.63;0.63;;;;;;;12.37;100.00;98974.69;5049080;28;20269;-74
2023/04/12 01:08:32;;;;;;;0.70;0.70;;;;;;;12.33;100.00;98975.59;5048407;28;20211;-74
2023/04/12 01:11:08;;;;;;;0.90;0.90;;;;;;;12.30;100.00;98969.56;5050577;28;20226;-74
2023/04/12 01:13:41;;;;;;;0.80;0.80;;;;;;;12.08;100.00;98940.31;5016038;28;20680;-74
2023/04/12 01:16:16;;;;;;;0.70;0.70;;;;;;;12.25;100.00;98960.94;5030811;28;20710;-74
2023/04/12 01:18:50;;;;;;;0.70;0.70;;;;;;;12.28;100.00;98966.09;5043692;28;20226;-73
2023/04/12 01:21:24;;;;;;;0.85;0.85;;;;;;;12.21;100.00;98960.09;5050436;28;20667;-73
2023/04/12 01:24:03;;;;;;;0.80;0.80;;;;;;;12.14;100.00;98935.06;5049823;28;20225;-73
2023/04/12 01:26:43;;;;;;;3.30;1.75;;;;;;;12.24;100.00;98949.66;5054909;28;20595;-74
2023/04/12 01:29:14;;;;;;;0.70;0.70;;;;;;;12.27;100.00;98948.81;5054573;28;20678;-74
2023/04/12 01:31:46;;;;;;;0.70;0.70;;;;;;;12.22;100.00;98956.63;5055357;28;20210;-74
2023/04/12 01:34:15;;;;;;;0.70;0.70;;;;;;;12.22;100.00;98945.38;5037020;28;20222;-73
2023/04/12 01:36:45;;;;;;;0.70;0.70;;;;;;;12.14;100.00;98941.97;5035804;28;20235;-73
2023/04/12 01:39:12;;;;;;;0.70;0.70;;;;;;;11.67;100.00;98877.44;5055526;28;20202;-74
2023/04/12 01:41:44;;;;;;;0.80;0.80;;;;;;;12.06;100.00;98926.47;5019109;28;20214;-74
2023/04/12 01:44:14;;;;;;;0.90;0.90;;;;;;;12.25;100.00;98951.41;5053078;28;20742;-73
2023/04/12 01:46:42;;;;;;;0.70;0.70;;;;;;;12.06;100.00;98951.56;5019266;28;20674;-73
2023/04/12 01:49:08;;;;;;;0.70;0.70;;;;;;;12.12;100.00;98951.53;5053937;28;20187;-73
2023/04/12 01:51:48;;;;;;;0.80;0.80;;;;;;;12.12;100.00;98949.81;5054224;28;20196;-73
2023/04/12 01:54:21;;;;;;;0.70;0.70;;;;;;;12.21;100.00;98959.22;5053484;28;20229;-73
2023/04/12 01:56:56;;;;;;;0.70;0.70;;;;;;;12.21;100.00;98957.50;5051656;28;20219;-74
2023/04/12 01:59:28;;;;;;;0.90;0.90;;;;;;;12.21;100.00;98948.84;5053902;28;20294;-74
2023/04/12 02:01:55;;;;;;;0.80;0.80;;;;;;;11.99;100.00;98953.38;5053441;28;20273;-74
2023/04/12 02:04:22;;;;;;;0.88;0.88;;;;;;;12.10;100.00;98940.28;5035021;28;20202;-74
2023/04/12 02:06:49;;;;;;;0.80;0.80;;;;;;;12.17;100.00;98942.81;5053858;28;20567;-73
2023/04/12 02:09:15;;;;;;;0.70;0.70;;;;;;;12.23;100.00;98937.56;5053396;28;20207;-72
2023/04/12 02:11:47;;;;;;;0.70;0.70;;;;;;;12.07;100.00;98917.81;5053530;28;20283;-74
2023/04/12 02:14:14;;;;;;;0.80;0.80;;;;;;;12.22;100.00;98930.66;5053256;28;20287;-74
2023/04/12 02:16:43;;;;;;;0.80;0.80;;;;;;;12.17;100.00;98921.16;5018596;28;20227;-73
2023/04/12 02:19:10;;;;;;;1.30;1.30;;;;;;;12.08;100.00;98936.84;5053637;28;20211;-74
2023/04/12 02:21:41;;;;;;;0.80;0.80;;;;;;;12.24;100.00;98939.28;5053273;28;20659;-73
2023/04/12 02:24:08;;;;;;;0.90;0.90;;;;;;;12.21;100.00;98941.91;5052626;28;20280;-73
2023/04/12 02:26:35;;;;;;;0.80;0.80;;;;;;;11.96;100.00;98932.63;5053430;28;20200;-73
2023/04/12 02:29:02;;;;;;;0.80;0.80;;;;;;;11.94;100.00;98939.59;5053352;28;20199;-74
2023/04/12 02:31:30;;;;;;;0.70;0.70;;;;;;;11.94;100.00;98939.59;5052804;28;20660;-73
2023/04/12 02:33:58;;;;;;;0.80;0.80;;;;;;;12.04;100.00;98933.41;5052859;28;20231;-74
2023/04/12 02:36:25;;;;;;;0.70;0.70;;;;;;;11.86;100.00;98925.78;5051806;28;20227;-74
2023/04/12 02:38:52;;;;;;;0.70;0.70;;;;;;;11.93;100.00;98937.84;5053017;28;20226;-74
2023/04/12 02:41:19;;;;;;;0.82;0.82;;;;;;;11.64;100.00;98887.88;5053238;28;20218;-72
2023/04/12 02:43:46;;;;;;;0.80;0.80;;;;;;;11.79;100.00;98898.16;5052319;28;20199;-74
2023/04/12 02:46:18;;;;;;;2.38;2.25;;;;;;;11.96;100.00;98932.63;5052711;28;20207;-74
2023/04/12 02:48:44;;;;;;;1.98;1.50;;;;;;;11.92;100.00;98936.97;5052793;28;20612;-74
2023/04/12 02:51:13;;;;;;;0.80;0.80;;;;;;;11.97;100.00;98938.69;5050814;28;20204;-73
2023/04/12 02:53:39;;;;;;;0.80;0.80;;;;;;;11.68;100.00;98921.59;5052072;28;20200;-74
2023/04/12 02:56:07;;;;;;;0.80;0.80;;;;;;;11.82;100.00;98934.47;5052396;28;20219;-74
2023/04/12 02:58:35;;;;;;;0.98;0.98;;;;;;;11.77;100.00;98933.69;5052845;28;20640;-74
2023/04/12 03:01:06;;;;;;;0.60;0.60;;;;;;;12.13;100.00;98940.28;5051855;28;20462;-76
2023/04/12 03:03:34;;;;;;;0.70;0.70;;;;;;;12.16;100.00;98954.09;5033122;28;20279;-75
2023/04/12 03:06:01;;;;;;;2.25;2.15;;;;;;;12.10;100.00;98935.94;5052914;28;20200;-75
2023/04/12 03:08:29;;;;;;;0.70;0.70;;;;;;;12.06;100.00;98943.78;5051782;28;20701;-75
2023/04/12 03:10:56;;;;;;;1.60;1.50;;;;;;;11.87;100.00;98933.59;5052553;28;20199;-73
2023/04/12 03:13:23;;;;;;;0.65;0.65;;;;;;;12.01;100.00;98930.00;5050937;28;20451;-73
2023/04/12 03:15:56;;;;;;;0.90;0.90;;;;;;;12.16;100.00;98948.91;5052505;28;20553;-74
2023/04/12 03:18:24;;;;;;;0.73;0.73;;;;;;;11.89;100.00;98946.53;5052150;28;20260;-74
2023/04/12 03:20:52;;;;;;;1.00;1.00;;;;;;;11.91;100.00;98930.06;5052718;28;20234;-74
2023/04/12 03:23:19;;;;;;;0.80;0.80;;;;;;;11.86;100.00;98941.38;5051993;28;20226;-74
2023/04/12 03:25:47;;;;;;;0.98;0.98;;;;;;;11.86;100.00;98933.59;5051909;28;20195;-74
2023/04/12 03:28:14;;;;;;;1.70;1.65;;;;;;;11.43;100.00;98866.41;5052109;28;20203;-75
2023/04/12 03:30:41;;;;;;;0.77;0.77;;;;;;;11.81;100.00;98943.13;5051989;28;20207;-75
2023/04/12 03:33:07;;;;;;;0.95;0.95;;;;;;;11.77;100.00;98933.69;5017071;28;20207;-73
2023/04/12 03:35:34;;;;;;;0.80;0.80;;;;;;;12.10;100.00;98941.16;5017140;28;20211;-76
2023/04/12 03:38:01;;;;;;;2.10;1.38;;;;;;;11.92;100.00;98942.19;5052158;28;20227;-75
2023/04/12 03:40:28;;;;;;;0.80;0.80;;;;;;;11.84;100.00;98949.16;5051611;28;20199;-75
2023/04/12 03:42:56;;;;;;;1.17;1.17;;;;;;;11.81;100.00;98946.59;5051971;28;20686;-76
2023/04/12 03:45:23;;;;;;;0.80;0.80;;;;;;;11.68;100.00;98936.28;5051557;28;20202;-76
2023/04/12 03:47:49;;;;;;;2.45;2.45;;;;;;;11.61;100.00;98940.69;5049792;28;20207;-76
2023/04/12 03:50:16;;;;;;;0.70;0.70;;;;;;;11.76;100.00;98956.19;5051347;28;20253;-76
2023/04/12 03:52:43;;;;;;;0.80;0.80;;;;;;;11.68;100.00;98957.06;5041214;28;20219;-76
2023/04/12 03:55:12;;;;;;;3.00;2.80;;;;;;;11.68;100.00;98954.47;5050721;28;20199;-75
2023/04/12 03:57:39;;;;;;;0.70;0.70;;;;;;;11.78;100.00;98944.03;5051648;28;20219;-75
2023/04/12 04:00:08;;;;;;;0.80;0.80;;;;;;;11.57;100.00;98925.13;5051286;28;20627;-75
2023/04/12 04:02:35;;;;;;;0.75;0.75;;;;;;;11.64;100.00;98958.81;5051887;28;20211;-76
2023/04/12 04:05:02;;;;;;;0.70;0.70;;;;;;;11.52;100.00;98934.72;5052005;28;20278;-76
2023/04/12 04:07:30;;;;;;;0.82;0.82;;;;;;;11.63;100.00;98949.31;5051663;28;20618;-76
2023/04/12 04:09:57;;;;;;;0.80;0.80;;;;;;;11.62;100.00;98936.34;5051349;28;20187;-76
2023/04/12 04:12:24;;;;;;;0.80;0.80;;;;;;;11.67;100.00;98942.34;5051472;28;20210;-75
2023/04/12 04:14:51;;;;;;;0.80;0.80;;;;;;;11.73;100.00;98960.53;5051430;28;20215;-76
2023/04/12 04:17:19;;;;;;;0.80;0.80;;;;;;;11.76;100.00;98957.91;5050985;28;20227;-76
2023/04/12 04:19:46;;;;;;;0.80;0.80;;;;;;;11.83;100.00;98964.78;5051428;28;20204;-76
2023/04/12 04:22:12;;;;;;;0.80;0.80;;;;;;;11.78;100.00;98963.94;5051317;28;20211;-75
2023/04/12 04:24:39;;;;;;;0.73;0.73;;;;;;;11.73;100.00;98970.94;5051292;28;20199;-75
2023/04/12 04:27:06;;;;;;;0.73;0.73;;;;;;;11.77;100.00;98970.03;5050927;28;20584;-75
2023/04/12 04:29:33;;;;;;;0.63;0.63;;;;;;;11.83;100.00;98972.56;5050957;28;20575;-76
2023/04/12 04:32:00;;;;;;;0.70;0.70;;;;;;;11.81;100.00;98969.09;5050759;28;20210;-76
2023/04/12 04:34:28;;;;;;;0.70;0.70;;;;;;;11.92;100.00;98978.53;5051315;28;20265;-75
2023/04/12 04:36:56;;;;;;;0.80;0.80;;;;;;;11.93;100.00;98990.66;5051189;28;20713;-76
2023/04/12 04:39:23;;;;;;;0.80;0.80;;;;;;;11.92;100.00;98988.06;5032734;28;20207;-74
2023/04/12 04:41:53;;;;;;;0.70;0.70;;;;;;;11.91;100.00;98999.34;5050918;28;20207;-76
2023/04/12 04:44:20;;;;;;;1.00;1.00;;;;;;;11.80;100.00;98977.78;5051101;28;20211;-75
2023/04/12 04:46:48;;;;;;;0.80;0.80;;;;;;;11.93;100.00;98992.41;5050940;28;20651;-76
2023/04/12 04:49:15;;;;;;;0.65;0.65;;;;;;;11.97;100.00;98991.50;5049993;28;20227;-75
2023/04/12 04:51:43;;;;;;;0.80;0.80;;;;;;;12.03;100.00;98986.25;5050475;28;20214;-76
2023/04/12 04:54:10;;;;;;;0.70;0.70;;;;;;;11.96;100.00;98994.97;5031891;28;20206;-75
2023/04/12 04:56:37;;;;;;;0.70;0.70;;;;;;;12.01;100.00;98981.94;5050159;28;20280;-76
2023/04/12 04:59:04;;;;;;;0.70;0.70;;;;;;;12.06;100.00;98990.53;5050444;28;20215;-76
2023/04/12 05:01:30;;;;;;;0.75;0.75;;;;;;;12.12;100.00;98985.31;5050595;28;20227;-76
2023/04/12 05:03:57;;;;;;;0.75;0.75;;;;;;;11.96;100.00;98948.22;5050582;28;20294;-75
2023/04/12 05:06:24;;;;;;;0.80;0.80;;;;;;;12.18;100.00;98985.25;5051122;28;20210;-73
2023/04/12 05:08:52;;;;;;;0.70;0.70;;;;;;;12.29;99.79;98984.28;5011969;28;20201;-75
2023/04/12 05:11:19;;;;;;;0.70;0.70;;;;;;;12.23;99.50;98981.75;5042148;28;20199;-76
2023/04/12 05:13:46;;;;;;;2.03;1.92;;;;;;;12.26;98.15;98994.72;5050843;28;20589;-75
2023/04/12 05:16:13;;;;;;;0.80;0.80;;;;;;;12.36;98.49;99000.69;5050486;28;20226;-70
2023/04/12 05:18:39;;;;;;;0.70;0.70;;;;;;;12.23;98.76;98984.34;5050209;28;20231;-71
2023/04/12 05:21:07;;;;;;;0.77;0.77;;;;;;;12.31;100.00;98992.06;5050064;28;20226;-76
2023/04/12 05:23:36;;;;;;;0.80;0.80;;;;;;;12.33;100.00;98980.78;5050952;28;20203;-78
2023/04/12 05:26:05;;;;;;;1.23;1.23;;;;;;;12.35;100.00;98979.00;5050811;28;20301;-74
2023/04/12 05:28:32;;;;;;;0.60;0.60;;;;;;;12.40;100.00;98973.78;5050731;28;20212;-75
2023/04/12 05:30:59;;;;;;;0.80;0.80;;;;;;;12.48;100.00;98990.16;5050848;28;20210;-75
2023/04/12 05:33:25;;;;;;;0.70;0.70;;;;;;;12.48;100.00;98984.09;5050479;28;20203;-74
2023/04/12 05:35:52;;;;;;;0.90;0.90;;;;;;;12.39;100.00;98974.66;5050501;28;20206;-75
2023/04/12 05:38:19;;;;;;;3.05;2.85;;;;;;;12.57;100.00;98989.19;5050081;28;20705;-74
2023/04/12 05:40:46;;;;;;;0.80;0.80;;;;;;;12.58;100.00;98975.31;5053364;28;20203;-77
2023/04/12 05:43:14;;;;;;;0.90;0.90;;;;;;;12.66;100.00;98983.91;5053634;28;20207;-74
2023/04/12 05:45:41;;;;;;;0.80;0.80;;;;;;;12.59;100.00;98987.47;5054172;28;20291;-75
2023/04/12 05:48:08;;;;;;;1.02;1.02;;;;;;;12.66;100.00;98984.78;5052145;28;20257;-76
2023/04/12 05:50:35;;;;;;;0.80;0.80;;;;;;;12.65;100.00;98995.19;5050483;28;20203;-76
2023/04/12 05:53:02;;;;;;;0.80;0.80;;;;;;;12.41;100.00;98989.34;5050111;28;20210;-76
2023/04/12 05:55:29;;;;;;;0.68;0.68;;;;;;;12.50;100.00;98995.34;5031733;28;20215;-77
2023/04/12 05:57:57;;;;;;;0.80;0.80;;;;;;;12.55;100.00;98988.38;5050083;28;20230;-77
2023/04/12 06:00:25;;;;;;;0.70;0.70;;;;;;;12.36;100.00;98979.88;5050103;28;20737;-76
2023/04/12 06:02:52;;;;;;;1.08;1.08;;;;;;;12.47;100.00;98982.38;5050040;28;20207;-76
2023/04/12 06:05:19;;;;;;;0.70;0.70;;;;;;;12.51;100.00;98984.94;5049866;28;20631;-77
2023/04/12 06:07:46;;;;;;;0.95;0.95;;;;;;;12.47;100.00;98969.38;5050098;28;20203;-77
2023/04/12 06:10:14;;;;;;;0.80;0.80;;;;;;;12.59;100.00;98982.25;5050341;28;20211;-75
2023/04/12 06:12:41;;;;;;;0.77;0.77;;;;;;;12.57;100.00;98973.59;5053494;28;20644;-75
2023/04/12 06:15:08;;;;;;;0.70;0.70;;;;;;;12.66;100.00;98978.72;5053421;28;20643;-76
2023/04/12 06:17:37;;;;;;;0.80;0.80;;;;;;;12.85;100.00;98972.41;5051336;28;20250;-77
2023/04/12 06:20:07;;;;;;;1.10;1.10;;;;;;;12.75;100.00;98983.78;5053646;28;20671;-74
2023/04/12 06:22:34;;;;;;;0.90;0.90;;;;;;;12.72;100.00;98983.84;5053481;28;20215;-76
2023/04/12 06:25:01;;;;;;;0.80;0.80;;;;;;;12.73;100.00;98985.56;5053296;28;20230;-75
2023/04/12 06:27:27;;;;;;;0.80;0.80;;;;;;;12.76;100.00;98991.59;5034841;28;20200;-76
2023/04/12 06:29:54;;;;;;;1.85;1.63;;;;;;;12.59;100.00;98961.47;5018215;28;20211;-75
2023/04/12 06:32:21;;;;;;;0.80;0.80;;;;;;;12.65;100.00;98988.25;5017944;28;20204;-75
2023/04/12 06:34:49;;;;;;;2.15;2.05;;;;;;;12.82;100.00;98990.66;5034632;28;20302;-75
2023/04/12 06:37:16;;;;;;;0.70;0.70;;;;;;;12.75;100.00;98994.19;5053067;28;20306;-76
2023/04/12 06:39:43;;;;;;;1.00;1.00;;;;;;;12.96;100.00;98993.94;5052978;28;20242;-76
2023/04/12 06:42:10;;;;;;;0.70;0.70;;;;;;;13.11;100.00;98999.00;5052976;28;20203;-75
2023/04/12 06:44:36;;;;;;;0.80;0.80;;;;;;;13.45;100.00;98999.41;5053217;28;20223;-75
2023/04/12 06:47:03;;;;;;;0.70;0.70;;;;;;;13.51;100.00;98998.47;5053033;28;20226;-76
2023/04/12 06:49:30;;;;;;;0.85;0.85;;;;;;;13.52;100.00;98979.38;5052929;28;20631;-74
2023/04/12 06:51:58;;;;;;;0.90;0.90;;;;;;;13.90;100.00;98993.53;5052793;28;20200;-75
2023/04/12 06:54:25;;;;;;;0.80;0.80;;;;;;;14.04;100.00;98987.22;5052752;28;20206;-75
2023/04/12 06:56:52;;;;;;;0.70;0.70;;;;;;;14.20;100.00;98989.53;5052514;28;20211;-75
2023/04/12 06:59:18;;;;;;;0.70;0.70;;;;;;;14.33;100.00;98987.59;5052848;28;20204;-76
2023/04/12 07:01:45;;;;;;;0.90;0.90;;;;;;;14.56;100.00;98992.41;5051349;28;20231;-76
2023/04/12 07:04:13;;;;;;;0.70;0.70;;;;;;;14.69;100.00;98989.56;5052450;28;20203;-75
2023/04/12 07:06:41;;;;;;;0.80;0.80;;;;;;;14.77;100.00;98990.25;5052645;28;20207;-78
2023/04/12 07:09:09;;;;;;;0.70;0.70;;;;;;;14.69;100.00;98975.66;5052466;28;20231;-76
2023/04/12 07:11:36;;;;;;;1.50;1.50;;;;;;;14.70;100.00;98973.00;5052416;28;20701;-75
2023/04/12 07:14:03;;;;;;;0.80;0.80;;;;;;;14.95;100.00;98994.25;5052188;28;20600;-75
2023/04/12 07:16:31;;;;;;;0.60;0.60;;;;;;;15.25;99.04;98988.41;5052350;28;20659;-76
2023/04/12 07:18:58;;;;;;;0.63;0.63;;;;;;;15.16;97.50;98969.47;5052123;28;20224;-76
2023/04/12 07:21:26;;;;;;;0.82;0.82;;;;;;;14.97;96.13;98987.28;5052156;28;20207;-75
2023/04/12 07:23:53;;;;;;;0.98;0.98;;;;;;;14.78;94.63;98991.13;5052471;28;20203;-75
2023/04/12 07:26:21;;;;;;;0.75;0.75;;;;;;;14.38;97.06;98955.34;5052472;28;20294;-75
2023/04/12 07:28:48;;;;;;;0.70;0.70;;;;;;;14.63;96.33;98988.78;5052774;28;20241;-74
2023/04/12 07:31:15;;;;;;;0.70;0.70;;;;;;;14.67;96.02;98966.97;5052443;28;20196;-75
2023/04/12 07:33:41;;;;;;;1.08;1.08;;;;;;;15.12;93.09;98999.16;5033978;28;20745;-74
2023/04/12 07:36:09;;;;;;;0.70;0.70;;;;;;;14.86;93.43;99005.75;5052421;28;20666;-75
2023/04/12 07:38:36;;;;;;;0.70;0.70;;;;;;;14.81;93.12;98993.66;5052152;28;20231;-76
2023/04/12 07:41:02;;;;;;;0.90;0.90;;;;;;;13.83;93.13;98826.91;5052636;28;20195;-75
2023/04/12 07:43:30;;;;;;;7.13;2.25;;;;;;;15.36;93.31;98996.88;5052308;28;20210;-76
2023/04/12 07:45:57;;;;;;;0.80;0.80;;;;;;;15.13;91.94;99004.31;5051926;28;20670;-76
2023/04/12 07:48:24;;;;;;;0.70;0.70;;;;;;;15.28;90.80;99005.75;5050858;28;20605;-75
2023/04/12 07:50:51;;;;;;;0.73;0.73;;;;;;;15.31;90.63;99003.94;5051459;28;20269;-76
2023/04/12 07:53:19;;;;;;;0.80;0.80;;;;;;;15.02;92.68;99001.06;5051666;28;20231;-77
2023/04/12 07:55:46;;;;;;;0.63;0.63;;;;;;;14.99;93.38;99001.13;5051640;28;20282;-77
2023/04/12 07:58:12;;;;;;;0.73;0.73;;;;;;;15.17;92.18;99005.97;5051700;28;20227;-76
2023/04/12 08:00:41;;;;;;;0.70;0.70;;;;;;;15.28;90.89;98996.16;5051378;28;20240;-77
2023/04/12 08:03:07;;;;;;;1.60;1.60;;;;;;;15.08;91.07;98985.31;5051470;28;20203;-77
2023/04/12 08:05:34;;;;;;;0.60;0.60;;;;;;;15.35;88.99;99005.59;5051597;28;20678;-77
2023/04/12 08:08:01;;;;;;;1.00;1.00;;;;;;;15.52;87.14;98997.41;5051926;28;20632;-77
2023/04/12 08:10:29;;;;;;;2.13;1.98;;;;;;;15.57;86.01;98974.66;5051672;28;20650;-78
2023/04/12 08:12:56;;;;;;;0.73;0.73;;;;;;;15.36;84.67;98999.50;5051604;28;20227;-78
2023/04/12 08:15:22;;;;;;;0.70;0.70;;;;;;;15.22;84.65;98983.25;5051681;28;20203;-77
2023/04/12 08:17:51;;;;;;;0.70;0.70;;;;;;;15.17;86.39;99000.75;5065949;28;20227;-76
2023/04/12 08:20:17;;;;;;;1.30;1.30;;;;;;;14.94;85.87;98982.13;5051241;28;20196;-76
2023/04/12 08:22:45;;;;;;;0.90;0.90;;;;;;;15.05;85.03;99011.47;5050876;28;20204;-74
2023/04/12 08:25:13;;;;;;;2.75;2.65;;;;;;;14.51;85.57;98942.09;5051344;28;20203;-76
2023/04/12 08:27:41;;;;;;;1.13;1.13;;;;;;;14.74;85.33;98979.03;5051224;28;20207;-74
2023/04/12 08:30:09;;;;;;;0.80;0.80;;;;;;;14.77;84.94;99025.91;4980832;28;20204;-74
2023/04/12 08:32:36;;;;;;;0.80;0.80;;;;;;;14.90;86.74;99009.16;5044956;28;20214;-74
2023/04/12 08:35:05;;;;;;;0.80;0.80;;;;;;;15.22;84.27;99019.81;5051020;28;20626;-74
2023/04/12 08:37:32;;;;;;;1.10;1.10;;;;;;;14.85;83.80;98987.50;5051087;28;20203;-74
2023/04/12 08:39:59;;;;;;;0.90;0.90;;;;;;;15.28;83.79;99009.22;5050747;28;20245;-74
2023/04/12 08:42:27;;;;;;;0.80;0.80;;;;;;;15.02;81.91;99011.50;5050754;28;20206;-76
2023/04/12 08:44:54;;;;;;;0.70;0.70;;;;;;;14.98;81.29;99004.66;5050699;28;20199;-75
2023/04/12 08:47:21;;;;;;;0.60;0.60;;;;;;;14.92;81.00;99015.19;5050544;28;20671;-75
2023/04/12 08:49:48;;;;;;;0.77;0.77;;;;;;;15.22;80.25;99019.81;5050829;28;20245;-75
2023/04/12 08:52:16;;;;;;;0.80;0.80;;;;;;;15.63;77.04;99007.63;5050924;28;20223;-73
2023/04/12 08:54:42;;;;;;;0.77;0.77;;;;;;;15.61;73.46;98988.53;5050703;28;20211;-73
2023/04/12 08:57:09;;;;;;;0.80;0.80;;;;;;;15.31;74.40;99009.16;5050558;28;20200;-73
2023/04/12 08:59:38;;;;;;;0.70;0.70;;;;;;;15.14;74.97;99026.94;5048260;28;20239;-75
2023/04/12 09:02:05;;;;;;;0.63;0.63;;;;;;;15.13;74.22;99011.28;5050594;28;20299;-77
2023/04/12 09:04:32;;;;;;;0.70;0.70;;;;;;;15.36;73.19;99014.31;5050692;28;20594;-76
2023/04/12 09:06:58;;;;;;;0.90;0.90;;;;;;;15.47;70.93;99011.44;5050568;28;20695;-76
2023/04/12 09:12:22;;;;;;;0.80;0.80;;;;;;;15.58;72.12;99012.13;5088253;27;20542;-74
2023/04/12 09:15:04;;;;;;;0.80;0.80;;;;;;;15.75;76.08;99002.13;5041749;28;20209;-72
2023/04/12 09:17:32;;;;;;;0.65;0.65;;;;;;;15.52;71.40;99001.81;5087507;28;20198;-77
2023/04/12 09:19:59;;;;;;;0.70;0.70;;;;;;;15.80;71.97;98988.03;5053207;28;20201;-73
2023/04/12 09:22:36;;;;;;;1.00;1.00;;;;;;;16.13;70.05;98981.16;5087960;28;20190;-74
2023/04/12 09:25:03;;;;;;;0.80;0.80;;;;;;;16.63;67.53;98997.31;5077190;28;20221;-76
2023/04/12 09:27:46;;;;;;;0.90;0.90;;;;;;;16.51;67.79;98998.50;5085500;28;20202;-75
2023/04/12 09:30:15;;;;;;;0.70;0.70;;;;;;;16.77;66.58;98995.19;5087882;28;20289;-76
2023/04/12 09:32:42;;;;;;;0.70;0.70;;;;;;;16.09;66.92;98996.94;5051188;28;20276;-76
2023/04/12 09:35:09;;;;;;;0.68;0.68;;;;;;;15.88;68.79;98990.47;5067466;28;20560;-75
2023/04/12 09:37:36;;;;;;;0.70;0.70;;;;;;;16.29;68.44;98992.09;5032363;28;20202;-76
2023/04/12 09:40:05;;;;;;;0.70;0.70;;;;;;;16.78;66.60;98994.28;5067570;28;20191;-76
2023/04/12 09:42:34;;;;;;;0.70;0.70;;;;;;;16.72;65.63;98984.88;5067863;28;20203;-77
2023/04/12 09:45:20;;;;;;;0.80;0.80;;;;;;;16.34;67.71;98974.50;5067843;28;20641;-76
2023/04/12 09:47:47;;;;;;;0.70;0.70;;;;;;;16.47;67.47;98990.75;5067220;28;20264;-76
2023/04/12 09:50:21;;;;;;;0.68;0.68;;;;;;;16.94;65.57;98992.97;5047918;28;20701;-70
2023/04/12 09:52:49;;;;;;;0.80;0.80;;;;;;;16.75;65.81;98987.41;5059056;28;20220;-78
2023/04/12 09:55:17;;;;;;;0.80;0.80;;;;;;;16.94;65.26;98986.88;5075160;28;20202;-78
2023/04/12 09:57:46;;;;;;;0.80;0.80;;;;;;;16.79;65.22;98985.56;5063101;28;20203;-78
2023/04/12 10:00:16;;;;;;;0.80;0.80;;;;;;;16.99;64.03;98980.59;5071068;28;20202;-78
2023/04/12 10:02:44;;;;;;;0.80;0.80;;;;;;;16.66;64.13;98945.75;5079197;28;20531;-78
2023/04/12 10:05:15;;;;;;;0.70;0.70;;;;;;;16.74;63.62;98979.56;5083751;28;20202;-78
2023/04/12 10:07:43;;;;;;;1.25;1.25;;;;;;;16.48;65.11;98987.25;5087610;28;20252;-77
2023/04/12 10:10:11;;;;;;;0.70;0.70;;;;;;;16.36;64.79;98975.34;5072788;28;20648;-78
2023/04/12 10:12:39;;;;;;;0.80;0.80;;;;;;;16.14;64.32;98982.88;5087185;28;20199;-76
2023/04/12 10:15:12;;;;;;;0.70;0.70;;;;;;;16.09;63.98;98989.09;5074079;28;20602;-76
2023/04/12 10:17:43;;;;;;;1.88;1.50;;;;;;;16.22;62.98;98995.75;5059374;28;20666;-77
2023/04/12 10:20:11;;;;;;;1.13;1.13;;;;;;;15.97;62.54;98969.38;5087555;28;20202;-78
2023/04/12 10:22:40;;;;;;;0.70;0.70;;;;;;;16.00;62.19;98984.97;5079744;28;20195;-77
2023/04/12 10:25:12;;;;;;;0.70;0.70;;;;;;;16.36;63.27;98991.03;5026986;28;20235;-78
2023/04/12 10:27:41;;;;;;;0.80;0.80;;;;;;;16.71;62.43;98979.66;5058404;28;20231;-77
2023/04/12 10:30:26;;;;;;;0.70;0.70;;;;;;;16.07;62.35;98962.13;5073927;28;20286;-77
2023/04/12 10:33:11;;;;;;;0.65;0.65;;;;;;;16.29;64.02;98986.84;5067937;28;20195;-77
2023/04/12 10:35:55;;;;;;;0.70;0.70;;;;;;;16.35;63.05;98990.16;5067018;28;20651;-74
2023/04/12 10:38:25;;;;;;;0.80;0.80;;;;;;;15.81;62.95;98952.31;5073347;28;20213;-75
2023/04/12 10:41:10;;;;;;;0.70;0.70;;;;;;;16.61;63.09;98991.28;5058782;28;20230;-75
2023/04/12 10:43:37;;;;;;;0.60;0.60;;;;;;;16.23;61.79;98979.19;5073082;28;20697;-76
2023/04/12 10:46:06;;;;;;;0.75;0.75;;;;;;;16.28;62.67;98991.22;5037866;28;20596;-76
2023/04/12 10:48:34;;;;;;;0.70;0.70;;;;;;;16.16;62.59;98965.38;5073457;28;20256;-77
2023/04/12 10:51:22;;;;;;;0.70;0.70;;;;;;;16.32;61.00;98987.63;5073235;28;20321;-76
2023/04/12 10:53:49;;;;;;;0.70;0.70;;;;;;;16.18;61.49;98989.75;5073149;28;20199;-76
2023/04/12 10:56:38;;;;;;;0.60;0.60;;;;;;;16.24;62.79;98992.19;5073104;28;20207;-75
2023/04/12 10:59:05;;;;;;;0.80;0.80;;;;;;;16.27;61.86;98991.25;5073406;28;20284;-75
2023/04/12 11:01:34;;;;;;;0.60;0.60;;;;;;;16.09;61.21;98989.97;5072978;28;20567;-75
2023/04/12 11:04:24;;;;;;;0.75;0.75;;;;;;;16.24;61.48;98986.97;5073097;28;20723;-75
2023/04/12 11:06:56;;;;;;;0.80;0.80;;;;;;;15.96;61.89;98974.63;5072869;28;20285;-75
2023/04/12 11:09:26;;;;;;;0.70;0.70;;;;;;;15.76;62.80;98996.00;5073023;28;20203;-77
2023/04/12 11:12:12;;;;;;;0.70;0.70;;;;;;;15.63;63.41;98978.88;5072964;28;20234;-75
2023/04/12 11:14:44;;;;;;;0.90;0.90;;;;;;;15.74;63.53;98974.25;5072798;28;20202;-74
2023/04/12 11:17:25;;;;;;;0.70;0.70;;;;;;;15.78;65.56;98986.38;5072662;28;20253;-77
2023/04/12 11:19:57;;;;;;;2.65;2.45;;;;;;;15.62;63.55;98985.03;5072599;28;20662;-74
2023/04/12 11:22:26;;;;;;;0.88;0.88;;;;;;;15.57;64.33;98989.47;5072768;28;20218;-77
2023/04/12 11:24:54;;;;;;;2.65;2.08;;;;;;;15.47;64.84;98970.53;5072581;28;20290;-76
2023/04/12 11:27:23;;;;;;;1.52;1.52;;;;;;;15.48;64.29;99000.94;5072530;28;20682;-74
2023/04/12 11:29:54;;;;;;;0.80;0.80;;;;;;;15.65;64.56;99001.50;5072351;28;20689;-76
2023/04/12 11:32:22;;;;;;;7.53;1.63;;;;;;;15.36;64.94;98996.88;5072574;28;20219;-76
2023/04/12 11:34:51;;;;;;;0.73;0.73;;;;;;;15.03;64.69;98971.47;5071579;28;20231;-75
2023/04/12 11:37:21;;;;;;;0.70;0.70;;;;;;;15.28;64.55;98985.72;5072279;28;20273;-76
2023/04/12 11:39:51;;;;;;;0.75;0.75;;;;;;;15.41;64.60;98988.91;5072670;28;20203;-74